createdAt,value
2023-09-14T00:01:42.846Z,78.64
2023-09-14T00:04:12.551Z,77.33
2023-09-14T00:06:41.902Z,77.04
2023-09-14T00:09:12.892Z,78.02
2023-09-14T00:11:42.017Z,78.46
2023-09-14T00:14:11.454Z,78.59
2023-09-14T00:16:40.668Z,80.08
2023-09-14T00:19:10.811Z,79.83
2023-09-14T00:21:43.550Z,79.49
2023-09-14T00:24:15.344Z,78.88
2023-09-14T00:26:44.491Z,79.86
2023-09-14T00:29:13.976Z,78.65
2023-09-14T00:31:42.921Z,79.24
2023-09-14T00:34:12.397Z,78.35
2023-09-14T00:36:41.306Z,77.70
2023-09-14T00:39:13.661Z,77.32
2023-09-14T00:41:43.610Z,76.84
2023-09-14T00:44:13.364Z,76.67
2023-09-14T00:46:42.355Z,78.94
2023-09-14T00:49:12.915Z,77.45
2023-09-14T00:51:42.421Z,78.13
2023-09-14T00:54:13.361Z,78.43
2023-09-14T00:56:42.738Z,78.06
2023-09-14T00:59:12.391Z,78.28
2023-09-14T01:01:41.770Z,78.08
2023-09-14T01:04:11.596Z,77.79
2023-09-14T01:06:41.233Z,78.61
2023-09-14T01:09:11.275Z,78.37
2023-09-14T01:11:41.790Z,77.08
2023-09-14T01:14:19.942Z,77.46
2023-09-14T01:16:56.502Z,77.20
2023-09-14T01:19:41.882Z,77.31
2023-09-14T01:22:24.698Z,77.80
2023-09-14T01:25:04.898Z,79.52
2023-09-14T01:27:36.449Z,79.61
2023-09-14T01:30:07.563Z,79.50
2023-09-14T01:32:36.860Z,80.28
2023-09-14T01:35:08.320Z,79.31
2023-09-14T01:37:37.896Z,80.01
2023-09-14T01:40:10.889Z,78.67
2023-09-14T01:42:42.467Z,78.40
2023-09-14T01:45:13.297Z,78.36
2023-09-14T01:47:42.878Z,77.54
2023-09-14T01:50:12.520Z,77.24
2023-09-14T01:52:42.097Z,77.29
2023-09-14T01:55:14.163Z,77.69
2023-09-14T01:57:45.066Z,78.13
2023-09-14T02:00:14.933Z,77.90
2023-09-14T02:02:45.402Z,79.12
2023-09-14T02:05:14.946Z,78.50
2023-09-14T02:07:44.548Z,79.04
2023-09-14T02:10:14.822Z,80.04
2023-09-14T02:12:46.342Z,79.85
2023-09-14T02:15:16.103Z,79.61
2023-09-14T02:17:45.399Z,80.02
2023-09-14T02:20:18.317Z,80.26
2023-09-14T02:22:47.579Z,79.75
2023-09-14T02:25:17.115Z,79.94
2023-09-14T02:27:48.475Z,79.43
2023-09-14T02:33:59.786Z,79.80
2023-09-14T02:36:29.218Z,79.98
2023-09-14T02:38:59.083Z,79.42
2023-09-14T02:41:28.619Z,79.08
2023-09-14T02:43:58.997Z,78.96
2023-09-14T02:46:28.529Z,79.81
2023-09-14T02:48:57.721Z,79.64
2023-09-14T02:51:27.190Z,79.41
2023-09-14T02:53:56.391Z,79.96
2023-09-14T02:56:25.789Z,79.28
2023-09-14T02:58:55.291Z,79.15
2023-09-14T03:01:26.262Z,78.77
2023-09-14T03:03:55.579Z,80.07
2023-09-14T03:06:25.406Z,78.76
2023-09-14T03:08:54.680Z,78.63
2023-09-14T03:11:24.258Z,80.79
2023-09-14T03:13:53.499Z,79.72
2023-09-14T03:16:23.474Z,79.95
2023-09-14T03:18:54.401Z,80.01
2023-09-14T03:21:25.433Z,79.73
2023-09-14T03:23:55.250Z,79.35
2023-09-14T03:26:28.955Z,78.67
2023-09-14T03:28:59.004Z,78.91
2023-09-14T03:31:30.044Z,79.55
2023-09-14T03:34:00.128Z,80.59
2023-09-14T03:36:31.894Z,79.81
2023-09-14T03:39:01.349Z,79.97
2023-09-14T03:41:35.777Z,81.49
2023-09-14T03:44:05.203Z,80.36
2023-09-14T03:46:34.810Z,81.32
2023-09-14T03:49:08.200Z,81.54
2023-09-14T03:51:38.013Z,82.05
2023-09-14T03:54:10.112Z,81.92
2023-09-14T03:56:42.340Z,81.38
2023-09-14T03:59:11.631Z,81.53
2023-09-14T04:01:41.149Z,82.03
2023-09-14T04:04:11.865Z,81.76
2023-09-14T04:06:41.625Z,81.82
2023-09-14T04:09:11.054Z,81.05
2023-09-14T04:11:40.723Z,82.51
2023-09-14T04:14:09.865Z,83.23
2023-09-14T04:16:39.616Z,82.32
2023-09-14T04:19:10.305Z,82.27
2023-09-14T04:21:40.950Z,82.40
2023-09-14T04:24:10.898Z,82.66
2023-09-14T04:26:40.327Z,82.54
2023-09-14T04:29:09.650Z,81.96
2023-09-14T04:31:39.402Z,82.81
2023-09-14T04:34:10.141Z,82.55
2023-09-14T04:36:39.810Z,81.65
2023-09-14T04:39:09.831Z,83.08
2023-09-14T04:41:39.491Z,82.53
2023-09-14T04:44:08.817Z,82.71
2023-09-14T04:46:38.719Z,82.03
2023-09-14T04:49:08.251Z,83.84
2023-09-14T04:51:39.100Z,84.03
2023-09-14T04:54:08.542Z,84.07
2023-09-14T04:56:38.025Z,84.16
2023-09-14T04:59:07.015Z,83.31
2023-09-14T05:01:36.409Z,83.45
2023-09-14T05:04:06.143Z,83.62
2023-09-14T05:06:35.972Z,83.23
2023-09-14T05:09:06.948Z,83.85
2023-09-14T05:11:36.514Z,84.02
2023-09-14T05:14:05.922Z,83.23
2023-09-14T05:16:35.366Z,84.18
2023-09-14T05:19:06.557Z,84.75
2023-09-14T05:21:36.555Z,83.51
2023-09-14T05:24:07.877Z,84.81
2023-09-14T05:26:37.416Z,83.50
2023-09-14T05:29:06.395Z,84.30
2023-09-14T05:31:35.907Z,84.82
2023-09-14T05:34:06.395Z,85.50
2023-09-14T05:36:36.279Z,84.77
2023-09-14T05:39:08.941Z,83.98
2023-09-14T05:41:41.633Z,84.90
2023-09-14T05:44:11.570Z,85.91
2023-09-14T05:46:42.277Z,85.17
2023-09-14T05:49:12.163Z,84.41
2023-09-14T05:51:41.745Z,84.60
2023-09-14T05:54:12.377Z,83.97
2023-09-14T05:56:41.978Z,84.80
2023-09-14T05:59:25.450Z,83.84
2023-09-14T06:02:00.522Z,82.00
2023-09-14T06:04:29.929Z,84.11
2023-09-14T06:06:59.640Z,83.25
2023-09-14T06:09:31.035Z,83.66
2023-09-14T06:12:02.481Z,83.81
2023-09-14T06:14:31.824Z,82.68
2023-09-14T06:17:02.029Z,81.95
2023-09-14T06:19:31.624Z,81.84
2023-09-14T06:22:03.602Z,83.26
2023-09-14T06:24:34.240Z,82.94
2023-09-14T06:27:03.967Z,82.74
2023-09-14T06:29:33.324Z,82.79
2023-09-14T06:32:03.429Z,83.69
2023-09-14T06:34:32.620Z,84.49
2023-09-14T06:37:02.023Z,83.77
2023-09-14T06:39:31.202Z,84.07
2023-09-14T06:42:02.084Z,83.67
2023-09-14T06:44:31.536Z,84.44
2023-09-14T06:47:02.733Z,83.18
2023-09-14T06:49:32.299Z,83.34
2023-09-14T06:52:02.132Z,82.84
2023-09-14T06:54:31.795Z,82.54
2023-09-14T06:57:03.532Z,82.46
2023-09-14T06:59:33.753Z,82.55
2023-09-14T07:02:03.768Z,82.38
2023-09-14T07:04:33.234Z,81.63
2023-09-14T07:07:02.986Z,83.10
2023-09-14T07:09:32.494Z,82.14
2023-09-14T07:12:04.608Z,82.05
2023-09-14T07:14:33.798Z,82.27
2023-09-14T07:17:03.582Z,81.89
2023-09-14T07:19:32.710Z,81.51
2023-09-14T07:22:02.280Z,81.06
2023-09-14T07:24:34.112Z,81.75
2023-09-14T07:27:05.361Z,80.71
2023-09-14T07:29:34.630Z,80.29
2023-09-14T07:32:04.915Z,80.39
2023-09-14T07:34:34.122Z,80.28
2023-09-14T07:37:04.208Z,80.63
2023-09-14T07:39:33.533Z,81.04
2023-09-14T07:42:04.431Z,80.56
2023-09-14T07:44:33.685Z,80.59
2023-09-14T07:47:03.557Z,81.19
2023-09-14T07:49:32.833Z,80.08
2023-09-14T07:52:02.313Z,79.77
2023-09-14T07:54:35.728Z,80.30
2023-09-14T07:57:06.955Z,80.37
2023-09-14T07:59:36.273Z,80.05
2023-09-14T08:02:05.956Z,79.92
2023-09-14T08:04:35.272Z,80.08
2023-09-14T08:07:05.097Z,79.74
2023-09-14T08:09:34.694Z,79.77
2023-09-14T08:12:06.154Z,79.58
2023-09-14T08:14:35.918Z,79.88
2023-09-14T08:17:05.473Z,79.49
2023-09-14T08:19:34.670Z,79.43
2023-09-14T08:22:05.052Z,79.20
2023-09-14T08:24:34.255Z,79.01
2023-09-14T08:27:03.677Z,78.95
2023-09-14T08:29:34.300Z,78.78
2023-09-14T08:32:06.988Z,79.63
2023-09-14T08:34:36.330Z,79.21
2023-09-14T08:37:08.648Z,79.68
2023-09-14T08:39:38.052Z,79.80
2023-09-14T08:42:07.758Z,79.45
2023-09-14T08:44:41.103Z,78.58
2023-09-14T08:47:12.321Z,78.49
2023-09-14T08:49:44.218Z,79.02
2023-09-14T08:52:17.934Z,78.82
2023-09-14T08:54:49.571Z,78.62
2023-09-14T08:57:19.130Z,78.32
2023-09-14T08:59:49.657Z,77.94
2023-09-14T09:02:20.733Z,78.22
2023-09-14T09:04:50.073Z,78.08
2023-09-14T09:07:19.744Z,77.81
2023-09-14T09:09:51.653Z,77.72
2023-09-14T09:12:21.466Z,78.03
2023-09-14T09:14:53.313Z,77.88
2023-09-14T09:17:22.773Z,77.66
2023-09-14T09:19:54.516Z,77.28
2023-09-14T09:22:24.341Z,76.79
2023-09-14T09:24:58.726Z,76.33
2023-09-14T09:27:28.351Z,76.53
2023-09-14T09:30:01.997Z,76.57
2023-09-14T09:32:34.297Z,76.65
2023-09-14T09:35:19.862Z,76.57
2023-09-14T09:37:49.972Z,76.23
2023-09-14T09:40:21.042Z,76.35
2023-09-14T09:42:51.325Z,75.93
2023-09-14T09:45:24.635Z,75.89
2023-09-14T09:47:55.856Z,76.01
2023-09-14T09:50:26.907Z,75.35
2023-09-14T09:52:56.729Z,76.02
2023-09-14T09:55:29.101Z,75.73
2023-09-14T09:57:59.767Z,75.83
2023-09-14T10:00:34.561Z,74.81
2023-09-14T10:03:04.560Z,75.22
2023-09-14T10:05:35.598Z,75.07
2023-09-14T10:08:05.652Z,74.38
2023-09-14T10:10:35.896Z,74.96
2023-09-14T10:13:08.130Z,74.38
2023-09-14T10:15:39.248Z,74.49
2023-09-14T10:18:09.236Z,73.74
2023-09-14T10:20:39.077Z,73.43
2023-09-14T10:23:10.687Z,73.41
2023-09-14T10:25:41.430Z,73.37
2023-09-14T10:28:13.232Z,72.68
2023-09-14T10:30:45.817Z,72.56
2023-09-14T10:33:16.194Z,71.36
2023-09-14T10:35:46.035Z,71.93
2023-09-14T10:38:16.632Z,72.29
2023-09-14T10:40:48.838Z,71.26
2023-09-14T10:43:18.492Z,70.49
2023-09-14T10:45:50.474Z,70.61
2023-09-14T10:48:30.415Z,71.91
2023-09-14T10:51:02.992Z,71.84
2023-09-14T10:53:33.061Z,70.37
2023-09-14T10:56:02.311Z,70.51
2023-09-14T10:58:42.615Z,70.38
2023-09-14T11:01:24.256Z,69.91
2023-09-14T11:04:11.782Z,69.46
2023-09-14T11:06:46.171Z,69.17
2023-09-14T11:09:16.889Z,70.17
2023-09-14T11:11:49.471Z,69.01
2023-09-14T11:14:22.107Z,68.89
2023-09-14T11:16:57.205Z,69.51
2023-09-14T11:19:54.788Z,69.49
2023-09-14T11:22:29.156Z,69.69
2023-09-14T11:25:00.454Z,69.36
2023-09-14T11:27:36.742Z,69.21
2023-09-14T11:30:16.747Z,69.03
2023-09-14T11:32:48.786Z,69.29
2023-09-14T11:35:21.849Z,69.71
2023-09-14T11:37:55.292Z,69.18
2023-09-14T11:40:35.901Z,69.58
2023-09-14T11:46:05.710Z,67.98
2023-09-14T11:51:13.053Z,68.19
2023-09-14T11:53:43.631Z,68.75
2023-09-14T11:56:14.595Z,68.25
2023-09-14T11:58:44.452Z,67.52
2023-09-14T12:01:14.049Z,67.41
2023-09-14T12:03:45.186Z,68.34
2023-09-14T12:06:15.434Z,67.01
2023-09-14T12:08:51.834Z,67.68
2023-09-14T12:11:23.323Z,67.71
2023-09-14T12:13:53.581Z,67.43
2023-09-14T12:16:25.038Z,66.87
2023-09-14T12:18:57.116Z,66.07
2023-09-14T12:21:26.859Z,65.69
2023-09-14T12:23:59.551Z,66.09
2023-09-14T12:26:29.388Z,67.35
2023-09-14T12:29:01.082Z,66.12
2023-09-14T12:31:33.049Z,66.54
2023-09-14T12:34:04.952Z,66.44
2023-09-14T12:36:34.824Z,66.65
2023-09-14T12:39:13.336Z,65.66
2023-09-14T12:41:43.147Z,65.67
2023-09-14T12:44:12.555Z,65.90
2023-09-14T12:46:42.072Z,66.52
2023-09-14T12:49:17.112Z,66.25
2023-09-14T12:51:49.995Z,65.17
2023-09-14T12:54:25.003Z,66.71
2023-09-14T12:56:54.630Z,65.29
2023-09-14T12:59:24.006Z,64.92
2023-09-14T13:01:54.047Z,64.15
2023-09-14T13:04:24.786Z,64.86
2023-09-14T13:06:54.365Z,65.42
2023-09-14T13:09:23.703Z,65.33
2023-09-14T13:11:58.364Z,65.43
2023-09-14T13:14:29.008Z,64.48
2023-09-14T13:16:59.666Z,65.17
2023-09-14T13:19:30.308Z,64.10
2023-09-14T13:22:07.294Z,64.18
2023-09-14T13:24:36.574Z,64.79
2023-09-14T13:27:06.511Z,65.71
2023-09-14T13:29:35.824Z,63.75
2023-09-14T13:32:06.009Z,65.28
2023-09-14T13:34:37.594Z,65.43
2023-09-14T13:37:08.265Z,65.74
2023-09-14T13:39:37.440Z,65.56
2023-09-14T13:42:07.195Z,66.25
2023-09-14T13:44:38.065Z,65.70
2023-09-14T13:47:07.524Z,65.32
2023-09-14T13:49:37.957Z,65.92
2023-09-14T13:52:08.061Z,66.93
2023-09-14T13:54:37.202Z,65.01
2023-09-14T13:57:08.599Z,63.79
2023-09-14T13:59:37.908Z,65.35
2023-09-14T14:02:07.341Z,64.87
2023-09-14T14:04:38.133Z,62.45
2023-09-14T14:07:07.889Z,63.92
2023-09-14T14:09:37.182Z,61.49
2023-09-14T14:12:07.524Z,61.83
2023-09-14T14:14:37.934Z,61.22
2023-09-14T14:17:08.214Z,61.02
2023-09-14T14:19:38.960Z,62.22
2023-09-14T14:22:08.696Z,62.80
2023-09-14T14:24:37.968Z,61.01
2023-09-14T14:27:07.773Z,61.83
2023-09-14T14:29:37.088Z,62.36
2023-09-14T14:32:07.598Z,60.53
2023-09-14T14:34:38.338Z,61.90
2023-09-14T14:37:07.993Z,61.13
2023-09-14T14:39:37.579Z,61.92
2023-09-14T14:42:07.510Z,62.76
2023-09-14T14:44:36.651Z,61.61
2023-09-14T14:47:06.486Z,62.57
2023-09-14T14:49:37.039Z,63.25
2023-09-14T14:52:07.070Z,62.93
2023-09-14T14:54:37.192Z,63.53
2023-09-14T14:57:07.178Z,62.03
2023-09-14T14:59:36.748Z,62.89
2023-09-14T15:02:07.109Z,63.29
2023-09-14T15:04:40.135Z,63.35
2023-09-14T15:07:12.159Z,62.99
2023-09-14T15:09:41.516Z,57.60
2023-09-14T15:12:11.216Z,60.52
2023-09-14T15:14:40.515Z,61.27
2023-09-14T15:17:09.825Z,61.07
2023-09-14T15:19:41.333Z,60.91
2023-09-14T15:22:10.825Z,59.52
2023-09-14T15:24:40.380Z,60.70
2023-09-14T15:27:09.826Z,59.75
2023-09-14T15:29:39.229Z,60.23
2023-09-14T15:32:08.704Z,61.36
2023-09-14T15:34:39.150Z,61.62
2023-09-14T15:37:08.991Z,61.15
2023-09-14T15:39:40.155Z,61.32
2023-09-14T15:42:10.838Z,61.59
2023-09-14T15:44:47.730Z,61.50
2023-09-14T15:47:17.201Z,61.08
2023-09-14T15:49:48.666Z,60.93
2023-09-14T15:52:18.232Z,60.95
2023-09-14T15:54:47.352Z,60.00
2023-09-14T15:57:16.711Z,61.15
2023-09-14T15:59:45.899Z,60.93
2023-09-14T16:02:15.711Z,60.69
2023-09-14T16:04:46.177Z,59.39
2023-09-14T16:07:15.663Z,60.79
2023-09-14T16:09:45.046Z,60.83
2023-09-14T16:12:14.689Z,60.65
2023-09-14T16:14:43.963Z,59.74
2023-09-14T16:17:13.917Z,60.28
2023-09-14T16:19:43.022Z,60.45
2023-09-14T16:22:13.998Z,60.10
2023-09-14T16:24:43.206Z,60.36
2023-09-14T16:27:12.942Z,60.06
2023-09-14T16:29:42.120Z,60.08
2023-09-14T16:32:12.594Z,60.35
2023-09-14T16:34:41.710Z,60.28
2023-09-14T16:37:12.585Z,60.12
2023-09-14T16:39:41.858Z,60.06
2023-09-14T16:42:11.254Z,60.27
2023-09-14T16:44:40.386Z,60.59
2023-09-14T16:47:09.738Z,60.50
2023-09-14T16:49:39.096Z,60.69
2023-09-14T16:52:08.660Z,60.81
2023-09-14T16:54:39.396Z,60.70
2023-09-14T16:57:08.889Z,60.87
2023-09-14T16:59:39.224Z,60.97
2023-09-14T17:02:10.616Z,61.03
2023-09-14T17:04:42.348Z,61.33
2023-09-14T17:07:11.932Z,61.08
2023-09-14T17:09:42.826Z,61.32
2023-09-14T17:12:13.392Z,61.30
2023-09-14T17:14:43.866Z,61.36
2023-09-14T17:17:13.710Z,61.45
2023-09-14T17:19:42.943Z,61.73
2023-09-14T17:22:14.013Z,61.66
2023-09-14T17:24:44.817Z,61.67
2023-09-14T17:27:14.607Z,61.94
2023-09-14T17:29:43.707Z,61.99
2023-09-14T17:32:14.186Z,61.83
2023-09-14T17:34:43.592Z,61.95
2023-09-14T17:37:13.013Z,62.10
2023-09-14T17:39:43.662Z,62.02
2023-09-14T17:42:13.177Z,61.92
2023-09-14T17:44:42.698Z,62.11
2023-09-14T17:47:12.224Z,62.18
2023-09-14T17:49:41.270Z,61.97
2023-09-14T17:52:11.438Z,62.08
2023-09-14T17:54:41.063Z,62.10
2023-09-14T17:57:12.054Z,62.27
2023-09-14T17:59:41.335Z,62.07
2023-09-14T18:02:11.356Z,62.36
2023-09-14T18:04:43.300Z,62.62
2023-09-14T18:07:12.823Z,62.51
2023-09-14T18:09:41.765Z,62.37
2023-09-14T18:12:12.735Z,62.55
2023-09-14T18:14:42.102Z,62.95
2023-09-14T18:17:12.268Z,63.15
2023-09-14T18:19:42.104Z,62.98
2023-09-14T18:22:13.916Z,63.42
2023-09-14T18:24:43.041Z,63.64
2023-09-14T18:27:14.612Z,63.37
2023-09-14T18:29:43.921Z,63.79
2023-09-14T18:32:13.502Z,63.68
2023-09-14T18:34:44.248Z,63.98
2023-09-14T18:37:15.315Z,64.00
2023-09-14T18:39:44.675Z,63.92
2023-09-14T18:42:15.719Z,63.65
2023-09-14T18:44:45.381Z,63.40
2023-09-14T18:47:14.769Z,64.25
2023-09-14T18:49:43.829Z,64.11
2023-09-14T18:52:14.701Z,63.96
2023-09-14T18:54:43.944Z,64.11
2023-09-14T18:57:14.909Z,64.13
2023-09-14T18:59:44.307Z,64.16
2023-09-14T19:02:14.782Z,64.22
2023-09-14T19:04:45.320Z,64.34
2023-09-14T19:07:15.021Z,64.46
2023-09-14T19:09:45.488Z,64.66
2023-09-14T19:12:18.039Z,64.65
2023-09-14T19:14:47.173Z,64.49
2023-09-14T19:17:17.913Z,64.62
2023-09-14T19:19:48.910Z,65.10
2023-09-14T19:22:18.471Z,64.90
2023-09-14T19:24:47.707Z,64.71
2023-09-14T19:27:18.649Z,64.83
2023-09-14T19:29:47.838Z,64.88
2023-09-14T19:32:17.267Z,64.72
2023-09-14T19:34:46.245Z,64.87
2023-09-14T19:37:15.602Z,64.91
2023-09-14T19:39:48.539Z,65.17
2023-09-14T19:42:19.820Z,66.21
2023-09-14T19:44:48.977Z,66.45
2023-09-14T19:47:18.609Z,66.40
2023-09-14T19:49:47.689Z,66.26
2023-09-14T19:52:17.621Z,66.21
2023-09-14T19:54:46.708Z,66.53
2023-09-14T19:57:15.899Z,65.96
2023-09-14T19:59:46.450Z,65.71
2023-09-14T20:02:17.087Z,66.54
2023-09-14T20:04:46.529Z,67.77
2023-09-14T20:07:15.982Z,68.13
2023-09-14T20:09:45.102Z,69.33
2023-09-14T20:12:17.884Z,68.17
2023-09-14T20:14:48.649Z,68.04
2023-09-14T20:17:19.324Z,68.03
2023-09-14T20:19:48.748Z,68.73
2023-09-14T20:22:18.226Z,68.05
2023-09-14T20:24:49.188Z,67.75
2023-09-14T20:27:18.700Z,68.70
2023-09-14T20:29:49.283Z,68.44
2023-09-14T20:32:18.845Z,68.76
2023-09-14T20:34:47.967Z,69.49
2023-09-14T20:37:17.724Z,68.96
2023-09-14T20:39:48.284Z,67.99
2023-09-14T20:42:19.278Z,68.42
2023-09-14T20:44:49.826Z,68.80
2023-09-14T20:47:23.585Z,70.38
2023-09-14T20:49:53.286Z,69.84
2023-09-14T20:52:24.111Z,69.18
2023-09-14T20:54:53.398Z,70.19
2023-09-14T20:57:22.823Z,69.78
2023-09-14T20:59:53.873Z,70.84
2023-09-14T21:02:23.265Z,70.84
2023-09-14T21:04:54.352Z,70.36
2023-09-14T21:07:23.955Z,72.03
2023-09-14T21:09:53.446Z,71.28
2023-09-14T21:12:22.826Z,70.11
2023-09-14T21:14:53.393Z,69.29
2023-09-14T21:17:23.228Z,70.54
2023-09-14T21:19:56.690Z,70.84
2023-09-14T21:22:27.323Z,71.73
2023-09-14T21:24:59.535Z,73.41
2023-09-14T21:27:29.573Z,73.79
2023-09-14T21:30:00.212Z,71.70
2023-09-14T21:32:30.213Z,71.01
2023-09-14T21:34:59.436Z,70.19
2023-09-14T21:37:28.660Z,73.75
2023-09-14T21:39:57.945Z,73.87
2023-09-14T21:42:27.103Z,74.15
2023-09-14T21:44:56.506Z,72.98
2023-09-14T21:47:27.692Z,75.07
2023-09-14T21:49:57.390Z,75.06
2023-09-14T21:52:28.282Z,75.01
2023-09-14T21:54:57.552Z,73.71
2023-09-14T21:57:26.736Z,71.79
2023-09-14T21:59:56.034Z,71.21
2023-09-14T22:02:30.173Z,72.86
2023-09-14T22:04:59.531Z,71.47
2023-09-14T22:07:29.315Z,71.00
2023-09-14T22:09:58.519Z,70.67
2023-09-14T22:12:28.261Z,70.97
2023-09-14T22:14:57.371Z,71.25
2023-09-14T22:17:28.539Z,72.46
2023-09-14T22:19:57.812Z,73.79
2023-09-14T22:22:27.050Z,74.32
2023-09-14T22:24:58.262Z,73.43
2023-09-14T22:27:28.963Z,73.52
2023-09-14T22:29:58.202Z,72.21
2023-09-14T22:32:29.129Z,72.17
2023-09-14T22:34:58.363Z,73.15
2023-09-14T22:37:35.550Z,74.18
2023-09-14T22:40:09.737Z,71.56
2023-09-14T22:42:39.992Z,71.57
2023-09-14T22:45:10.957Z,73.42
2023-09-14T22:47:41.884Z,72.76
2023-09-14T22:50:11.713Z,73.36
2023-09-14T22:52:41.304Z,73.13
2023-09-14T22:55:13.763Z,74.81
2023-09-14T22:57:43.702Z,76.18
2023-09-14T23:00:14.143Z,75.74
2023-09-14T23:02:45.237Z,73.88
2023-09-14T23:05:14.734Z,72.62
2023-09-14T23:07:44.246Z,75.10
2023-09-14T23:10:15.287Z,74.00
2023-09-14T23:12:44.952Z,74.10
2023-09-14T23:15:14.286Z,75.18
2023-09-14T23:17:45.372Z,74.12
2023-09-14T23:20:25.487Z,74.17
2023-09-14T23:22:57.759Z,74.61
2023-09-14T23:25:27.294Z,74.18
2023-09-14T23:27:56.901Z,73.96
2023-09-14T23:30:28.336Z,73.34
2023-09-14T23:32:59.225Z,73.79
2023-09-14T23:35:28.625Z,75.11
2023-09-14T23:37:58.019Z,73.06
2023-09-14T23:40:34.296Z,72.35
2023-09-14T23:43:06.032Z,72.84
2023-09-14T23:45:35.247Z,72.21
2023-09-14T23:48:08.710Z,72.49
2023-09-14T23:50:37.991Z,73.41
2023-09-14T23:53:07.156Z,75.66
2023-09-14T23:55:36.252Z,74.50
2023-09-14T23:58:05.661Z,77.94
